EPGD/GDN METAR and TAF weather

Enter ICAO airport designator
Station Type Date Time Source
EPGD METAR 2021/09/28 16:00 UTC NOAA

EPGD 281600Z 14009KT 9999 BKN043 15/08 Q1023


Station Type Date Time Source
EPGD Decoded METAR 2021/09/28 16:00 UTC NOAA

Gdansk-Rebiechowo, Poland (EPGD) 54-23N 018-28E 138M
Sep 28, 2021 - 12:00 PM EDT / 2021.09.28 1600 UTC
Wind: from the SE (140 degrees) at 10 MPH (9 KT):0
Visibility: greater than 7 mile(s):0
Sky conditions: mostly cloudy
Temperature: 59 F (15 C)
Dew Point: 46 F (8 C)
Relative Humidity: 62%
Pressure (altimeter): 30.21 in. Hg (1023 hPa)
ob: EPGD 281600Z 14009KT 9999 BKN043 15/08 Q1023
cycle: 16

Station Type Date Time Source
EPGD TAF 2021/09/28 12:37 UTC NOAA

TAF EPGD 281130Z 2812/2912 14010KT 9999 SCT040 PROB30
TEMPO 2812/2816 16015G25KT
TEMPO 2909/2912 16015G27KT

Example: see airport list